Time;durP1;ratioP1;P1;durP2;ratioP2;P2;SDS_P1;SDS_P2;PMS_P1;PMS_P2;Temp;Humidity;BMP_temperature;BMP_pressure;BME280_temperature;BME280_humidity;BME280_pressure;Samples;Min_cycle;Max_cycle;Signal;HPM_P1;HPM_P2
2022/12/22 03:26:56;;;;;;;;;;;9.90;99.90;;;;;;4969174;29;19914;-77
2022/12/22 03:29:21;;;;;;;;;;;9.80;99.90;;;;;;4968116;28;19906;-77
2022/12/22 03:31:47;;;;;;;;;;;9.80;99.90;;;;;;4968716;29;19981;-78
2022/12/22 03:34:14;;;;;;;;;;;9.90;99.90;;;;;;4968501;28;19910;-77
2022/12/22 03:36:39;;;;;;;;;;;9.90;99.90;;;;;;4968806;29;19910;-77
2022/12/22 03:39:06;;;;;;;;;;;9.90;99.90;;;;;;4968737;29;19910;-77
2022/12/22 03:47:00;;;;;;;;;;;9.90;99.90;;;;;;4967075;29;19921;-77
2022/12/22 03:49:26;;;;;;;;;;;9.90;99.90;;;;;;4968461;29;19907;-77
2022/12/22 03:51:52;;;;;;;;;;;9.80;99.90;;;;;;4968393;29;19914;-76
2022/12/22 03:54:19;;;;;;;;;;;9.70;99.90;;;;;;4967094;29;19914;-77
2022/12/22 03:56:45;;;;;;;;;;;9.70;99.90;;;;;;4968396;28;19962;-77
2022/12/22 03:59:11;;;;;;;;;;;9.80;99.90;;;;;;4968320;28;19935;-76
2022/12/22 04:01:41;;;;;;;;;;;9.70;99.90;;;;;;4967304;29;19977;-77
2022/12/22 04:04:07;;;;;;;;;;;9.70;99.90;;;;;;4967828;28;19910;-76
2022/12/22 04:06:33;;;;;;;;;;;9.70;99.90;;;;;;4968220;28;19949;-77
2022/12/22 04:08:58;;;;;;;;;;;9.60;99.90;;;;;;4968546;28;19938;-77
2022/12/22 04:14:09;;;;;;;;;;;9.70;99.90;;;;;;4967985;29;19918;-77
2022/12/22 04:16:35;;;;;;;;;;;9.70;99.90;;;;;;4968023;28;19906;-76
2022/12/22 04:19:00;;;;;;;;;;;9.60;99.90;;;;;;4951041;29;19975;-77
2022/12/22 04:21:26;;;;;;;;;;;9.60;99.90;;;;;;4968083;28;19956;-77
2022/12/22 04:23:52;;;;;;;;;;;9.60;99.90;;;;;;4966579;29;19906;-77
2022/12/22 04:26:19;;;;;;;;;;;9.60;99.90;;;;;;4968117;29;19915;-78
2022/12/22 04:28:45;;;;;;;;;;;9.60;99.90;;;;;;4947514;29;19910;-77
2022/12/22 04:31:10;;;;;;;;;;;9.60;99.90;;;;;;4947653;29;19911;-76
2022/12/22 04:33:36;;;;;;;;;;;9.60;99.90;;;;;;4951171;29;19921;-77
2022/12/22 04:36:02;;;;;;;;;;;9.60;99.90;;;;;;4946962;29;19910;-77
2022/12/22 04:38:27;;;;;;;;;;;9.60;99.90;;;;;;4959603;29;19919;-77
2022/12/22 04:40:53;;;;;;;;;;;9.60;99.90;;;;;;4983558;28;19925;-77
2022/12/22 04:43:19;;;;;;;;;;;9.60;99.90;;;;;;4970745;29;19918;-77
2022/12/22 04:45:44;;;;;;;;;;;9.70;99.90;;;;;;4986522;28;19910;-77
2022/12/22 04:48:10;;;;;;;;;;;9.70;99.90;;;;;;4971875;28;19914;-77
2022/12/22 04:50:36;;;;;;;;;;;9.70;99.90;;;;;;4970581;29;19914;-77
2022/12/22 04:53:01;;;;;;;;;;;9.70;99.90;;;;;;4971800;28;19911;-77
2022/12/22 04:55:28;;;;;;;;;;;9.70;99.90;;;;;;4971450;28;19922;-76
2022/12/22 04:57:54;;;;;;;;;;;9.70;99.90;;;;;;4971290;28;19945;-77
2022/12/22 05:00:19;;;;;;;;;;;9.70;99.90;;;;;;4971621;28;19934;-77
2022/12/22 05:02:45;;;;;;;;;;;9.70;99.90;;;;;;4970254;29;19926;-77
2022/12/22 05:05:11;;;;;;;;;;;9.70;99.90;;;;;;4971006;29;19914;-77
2022/12/22 05:07:37;;;;;;;;;;;9.70;99.90;;;;;;4954541;29;19911;-77
2022/12/22 05:10:03;;;;;;;;;;;9.80;99.90;;;;;;4970258;29;20404;-77
2022/12/22 05:15:14;;;;;;;;;;;9.70;99.90;;;;;;4970931;29;19921;-77
2022/12/22 05:17:39;;;;;;;;;;;9.70;99.90;;;;;;4970144;29;19910;-77
2022/12/22 05:20:05;;;;;;;;;;;9.70;99.90;;;;;;4971125;29;19989;-77
2022/12/22 05:22:31;;;;;;;;;;;9.70;99.90;;;;;;4970090;29;19958;-77
2022/12/22 05:24:56;;;;;;;;;;;9.70;99.90;;;;;;4986077;28;19938;-77
2022/12/22 05:27:22;;;;;;;;;;;9.70;99.90;;;;;;4970038;29;19915;-77
2022/12/22 05:29:48;;;;;;;;;;;9.80;99.90;;;;;;4969217;29;20021;-77
2022/12/22 05:32:13;;;;;;;;;;;9.70;99.90;;;;;;4970898;28;19910;-77
2022/12/22 05:34:40;;;;;;;;;;;9.70;99.90;;;;;;4969764;29;19937;-77
2022/12/22 05:37:05;;;;;;;;;;;9.70;99.90;;;;;;4970605;28;20456;-77
2022/12/22 05:39:31;;;;;;;;;;;9.70;99.90;;;;;;4969460;29;19922;-76
2022/12/22 05:41:56;;;;;;;;;;;9.70;99.90;;;;;;4970904;29;19921;-77
2022/12/22 05:44:22;;;;;;;;;;;9.60;99.90;;;;;;4985755;28;19915;-77
2022/12/22 05:46:50;;;;;;;;;;;9.50;99.90;;;;;;4985388;28;19938;-77
2022/12/22 05:49:15;;;;;;;;;;;9.50;99.90;;;;;;4969319;29;19942;-77
2022/12/22 05:51:41;;;;;;;;;;;9.50;99.90;;;;;;4953467;29;19910;-77
2022/12/22 05:54:08;;;;;;;;;;;9.50;99.90;;;;;;4984361;28;19911;-77
2022/12/22 05:56:33;;;;;;;;;;;9.50;99.90;;;;;;4946322;29;20366;-78
2022/12/22 05:58:59;;;;;;;;;;;9.50;99.90;;;;;;4951210;29;19926;-77
2022/12/22 06:01:25;;;;;;;;;;;9.50;99.90;;;;;;4964890;28;19918;-77
2022/12/22 06:03:50;;;;;;;;;;;9.40;99.90;;;;;;4972466;28;19937;-77
2022/12/22 06:06:16;;;;;;;;;;;9.40;99.90;;;;;;4964927;28;19914;-77
2022/12/22 06:08:42;;;;;;;;;;;9.40;99.90;;;;;;4984913;28;19918;-77
2022/12/22 06:11:07;;;;;;;;;;;9.40;99.90;;;;;;4968371;29;19926;-77
2022/12/22 06:13:34;;;;;;;;;;;9.50;99.90;;;;;;4970069;29;19918;-77
2022/12/22 06:15:59;;;;;;;;;;;9.50;99.90;;;;;;4968653;29;19910;-77
2022/12/22 06:18:25;;;;;;;;;;;9.50;99.90;;;;;;4984626;28;19969;-77
2022/12/22 06:20:52;;;;;;;;;;;9.40;99.90;;;;;;4956515;29;19925;-77
2022/12/22 06:23:18;;;;;;;;;;;9.40;99.90;;;;;;4968153;29;19969;-77
2022/12/22 06:25:54;;;;;;;;;;;9.40;99.90;;;;;;4968419;29;19910;-77
2022/12/22 06:28:20;;;;;;;;;;;9.50;99.90;;;;;;4968109;29;20324;-77
2022/12/22 06:30:47;;;;;;;;;;;9.50;99.90;;;;;;4968358;28;19910;-77
2022/12/22 06:33:12;;;;;;;;;;;9.50;99.90;;;;;;4984746;28;19933;-77
2022/12/22 06:35:38;;;;;;;;;;;9.60;99.90;;;;;;4968201;29;19938;-77
2022/12/22 06:38:04;;;;;;;;;;;9.60;99.90;;;;;;4984355;28;20004;-77
2022/12/22 06:40:30;;;;;;;;;;;9.60;99.90;;;;;;4984240;28;19918;-77
2022/12/22 06:43:07;;;;;;;;;;;9.60;99.90;;;;;;4968420;29;19915;-77
2022/12/22 06:45:40;;;;;;;;;;;9.60;99.90;;;;;;4969537;28;19945;-77
2022/12/22 06:48:06;;;;;;;;;;;9.60;99.90;;;;;;4980874;28;19918;-77
2022/12/22 06:50:32;;;;;;;;;;;9.60;99.90;;;;;;4944585;29;19915;-77
2022/12/22 06:52:58;;;;;;;;;;;9.60;99.90;;;;;;4969616;29;19917;-77
2022/12/22 06:55:24;;;;;;;;;;;9.70;99.90;;;;;;4969482;28;19957;-77
2022/12/22 06:57:50;;;;;;;;;;;9.70;99.90;;;;;;4968148;29;19945;-77
2022/12/22 07:00:16;;;;;;;;;;;9.70;99.90;;;;;;4969488;28;19919;-77
2022/12/22 07:02:41;;;;;;;;;;;9.70;99.90;;;;;;4964686;29;19969;-76
2022/12/22 07:05:07;;;;;;;;;;;9.60;99.90;;;;;;4949143;29;19918;-77
2022/12/22 07:07:33;;;;;;;;;;;9.60;99.90;;;;;;4948831;29;19911;-77
2022/12/22 07:09:59;;;;;;;;;;;9.60;99.90;;;;;;4949976;29;19926;-77
2022/12/22 07:12:25;;;;;;;;;;;9.60;99.90;;;;;;4949986;29;19917;-77
2022/12/22 07:14:50;;;;;;;;;;;9.70;99.90;;;;;;4949909;29;19946;-77
2022/12/22 07:17:16;;;;;;;;;;;9.60;99.90;;;;;;4962792;29;19914;-77
2022/12/22 07:19:42;;;;;;;;;;;9.60;99.90;;;;;;4969220;28;19958;-77
2022/12/22 07:22:07;;;;;;;;;;;9.70;99.90;;;;;;4969074;28;20370;-77
2022/12/22 07:24:33;;;;;;;;;;;9.70;99.90;;;;;;4967672;29;19915;-77
2022/12/22 07:26:59;;;;;;;;;;;9.70;99.90;;;;;;4968950;28;20009;-77
2022/12/22 07:29:24;;;;;;;;;;;9.70;99.90;;;;;;4968788;28;19916;-77
2022/12/22 07:31:50;;;;;;;;;;;9.70;99.90;;;;;;4968658;29;19914;-77
2022/12/22 07:34:17;;;;;;;;;;;9.60;99.90;;;;;;4968863;28;19906;-77
2022/12/22 07:36:42;;;;;;;;;;;9.60;99.90;;;;;;4959809;29;19910;-77
2022/12/22 07:39:08;;;;;;;;;;;9.60;99.90;;;;;;4949719;28;19931;-77
2022/12/22 07:44:18;;;;;;;;;;;9.60;99.90;;;;;;4949148;29;19985;-76
2022/12/22 07:46:44;;;;;;;;;;;9.70;99.90;;;;;;4966281;29;19910;-77
2022/12/22 07:51:55;;;;;;;;;;;9.60;99.90;;;;;;4966907;29;19946;-77
2022/12/22 07:54:21;;;;;;;;;;;9.60;99.90;;;;;;4968241;28;19907;-77
2022/12/22 07:56:49;;;;;;;;;;;9.60;99.90;;;;;;4968229;28;19918;-76
2022/12/22 07:59:15;;;;;;;;;;;9.60;99.90;;;;;;4968218;28;19986;-77
2022/12/22 08:01:41;;;;;;;;;;;9.60;99.90;;;;;;4967039;29;19914;-77
2022/12/22 08:04:08;;;;;;;;;;;9.60;99.90;;;;;;4966420;29;20694;-77
2022/12/22 08:06:34;;;;;;;;;;;9.60;99.90;;;;;;4966715;28;20000;-77
2022/12/22 08:09:00;;;;;;;;;;;9.50;99.90;;;;;;4958636;29;20436;-76
2022/12/22 08:11:26;;;;;;;;;;;9.50;99.90;;;;;;4950826;29;19910;-77
2022/12/22 08:13:51;;;;;;;;;;;9.50;99.90;;;;;;4968290;29;19969;-77
2022/12/22 08:16:19;;;;;;;;;;;9.60;99.90;;;;;;4956549;28;19907;-77
2022/12/22 08:18:45;;;;;;;;;;;9.60;99.90;;;;;;4949952;29;20389;-77
2022/12/22 08:21:10;;;;;;;;;;;9.70;99.90;;;;;;4962884;29;19918;-76
2022/12/22 08:23:36;;;;;;;;;;;9.60;99.90;;;;;;4966359;29;19910;-76
2022/12/22 08:26:09;;;;;;;;;;;9.70;99.90;;;;;;4968042;28;19914;-77
2022/12/22 08:28:37;;;;;;;;;;;9.70;99.90;;;;;;4966827;29;19910;-77
2022/12/22 08:31:03;;;;;;;;;;;9.70;99.90;;;;;;4955295;28;19914;-76
2022/12/22 08:33:29;;;;;;;;;;;9.70;99.90;;;;;;4950882;29;19915;-76
2022/12/22 08:35:55;;;;;;;;;;;9.70;99.90;;;;;;4948825;29;19950;-77
2022/12/22 08:38:21;;;;;;;;;;;9.60;99.90;;;;;;4952705;29;19906;-76
2022/12/22 08:40:47;;;;;;;;;;;9.70;99.90;;;;;;4982515;28;19925;-76
2022/12/22 08:43:13;;;;;;;;;;;9.70;99.90;;;;;;4968037;28;19918;-76
2022/12/22 08:45:40;;;;;;;;;;;9.60;99.90;;;;;;4966709;29;19911;-76
2022/12/22 08:48:06;;;;;;;;;;;9.60;99.90;;;;;;4967115;28;19918;-77
2022/12/22 08:50:31;;;;;;;;;;;9.50;99.90;;;;;;4981702;28;19911;-77
2022/12/22 08:53:01;;;;;;;;;;;9.50;99.90;;;;;;4967869;28;19910;-77
2022/12/22 08:55:27;;;;;;;;;;;9.60;99.90;;;;;;4981925;28;20362;-77
2022/12/22 08:57:53;;;;;;;;;;;9.70;99.90;;;;;;4947756;29;19973;-77
2022/12/22 09:00:18;;;;;;;;;;;9.70;99.90;;;;;;4950303;29;19922;-76
2022/12/22 09:02:44;;;;;;;;;;;9.90;99.90;;;;;;4982399;28;20421;-77
2022/12/22 09:05:10;;;;;;;;;;;10.00;99.90;;;;;;4967720;29;19915;-77
2022/12/22 09:07:36;;;;;;;;;;;10.00;99.90;;;;;;4966879;29;19910;-77
2022/12/22 09:10:01;;;;;;;;;;;10.00;99.90;;;;;;4966162;29;19915;-77
2022/12/22 09:12:27;;;;;;;;;;;10.00;99.90;;;;;;4980850;28;19921;-77
2022/12/22 09:14:53;;;;;;;;;;;10.10;99.90;;;;;;4982036;28;19938;-76
2022/12/22 09:17:18;;;;;;;;;;;10.10;99.90;;;;;;4964997;29;19914;-77
2022/12/22 09:19:44;;;;;;;;;;;10.30;99.90;;;;;;4966164;29;19922;-76
2022/12/22 09:22:10;;;;;;;;;;;10.40;99.90;;;;;;4966102;29;19915;-77
2022/12/22 09:24:36;;;;;;;;;;;10.40;99.90;;;;;;4964380;29;19978;-76
2022/12/22 09:27:02;;;;;;;;;;;10.50;99.90;;;;;;4949601;28;19914;-77
2022/12/22 09:29:28;;;;;;;;;;;10.40;99.90;;;;;;4967919;29;19910;-76
2022/12/22 09:31:53;;;;;;;;;;;10.40;99.90;;;;;;4970932;28;19914;-76
2022/12/22 09:34:19;;;;;;;;;;;10.60;99.90;;;;;;4969706;29;19917;-77
2022/12/22 09:36:45;;;;;;;;;;;10.70;99.90;;;;;;4969886;29;19937;-77
2022/12/22 09:39:11;;;;;;;;;;;10.50;99.90;;;;;;4969954;28;19917;-77
2022/12/22 09:41:40;;;;;;;;;;;10.50;99.90;;;;;;4969186;29;19914;-77
2022/12/22 09:44:21;;;;;;;;;;;10.70;99.90;;;;;;4970227;29;19977;-76
2022/12/22 09:46:47;;;;;;;;;;;11.30;99.90;;;;;;4968648;29;19916;-77
2022/12/22 09:49:14;;;;;;;;;;;11.80;99.90;;;;;;4984545;28;19907;-76
2022/12/22 09:51:41;;;;;;;;;;;12.90;99.90;;;;;;4967109;29;19982;-77
2022/12/22 09:54:09;;;;;;;;;;;14.70;99.90;;;;;;4968718;29;20323;-77
2022/12/22 09:56:35;;;;;;;;;;;15.50;99.90;;;;;;4969558;28;19918;-77
2022/12/22 09:59:00;;;;;;;;;;;16.60;99.90;;;;;;4970251;29;20009;-77
2022/12/22 10:01:35;;;;;;;;;;;16.80;99.90;;;;;;4984418;28;19914;-77
2022/12/22 10:04:05;;;;;;;;;;;16.90;99.90;;;;;;4984320;28;19910;-77
2022/12/22 10:06:37;;;;;;;;;;;17.20;99.90;;;;;;4967085;29;19914;-77
2022/12/22 10:09:10;;;;;;;;;;;17.30;99.90;;;;;;4969794;29;19917;-78
2022/12/22 10:11:36;;;;;;;;;;;17.70;99.90;;;;;;4949688;29;19918;-79
2022/12/22 10:14:02;;;;;;;;;;;17.20;99.90;;;;;;4966252;29;19906;-79
2022/12/22 10:16:28;;;;;;;;;;;16.00;99.90;;;;;;4968734;29;20109;-79
2022/12/22 10:18:58;;;;;;;;;;;15.20;99.90;;;;;;4969206;28;19914;-78
2022/12/22 10:21:25;;;;;;;;;;;14.90;99.90;;;;;;4967092;29;19926;-78
2022/12/22 10:23:51;;;;;;;;;;;14.40;99.90;;;;;;4967853;29;19911;-76
2022/12/22 10:26:16;;;;;;;;;;;14.30;99.90;;;;;;4967967;29;19921;-79
2022/12/22 10:28:44;;;;;;;;;;;14.20;99.90;;;;;;4968956;29;19933;-76
2022/12/22 10:31:12;;;;;;;;;;;14.30;99.90;;;;;;4968202;29;19910;-79
2022/12/22 10:33:38;;;;;;;;;;;14.20;99.90;;;;;;4967931;28;19910;-76
2022/12/22 10:36:05;;;;;;;;;;;13.80;99.90;;;;;;4968373;28;19910;-76
2022/12/22 10:38:35;;;;;;;;;;;13.20;99.90;;;;;;4968875;28;19942;-76
2022/12/22 10:41:03;;;;;;;;;;;12.60;99.90;;;;;;4968201;29;19914;-78
2022/12/22 10:43:31;;;;;;;;;;;12.30;99.90;;;;;;4967903;29;19914;-78
2022/12/22 10:45:57;;;;;;;;;;;12.10;99.90;;;;;;4968631;29;19917;-77
2022/12/22 10:48:27;;;;;;;;;;;12.20;99.90;;;;;;4982947;28;19910;-78
2022/12/22 10:50:53;;;;;;;;;;;14.00;99.90;;;;;;4984070;28;19918;-78
2022/12/22 10:53:35;;;;;;;;;;;15.50;99.90;;;;;;4952099;29;19910;-78
2022/12/22 10:56:05;;;;;;;;;;;16.70;99.90;;;;;;4984053;28;19911;-78
2022/12/22 10:58:44;;;;;;;;;;;16.50;99.90;;;;;;4967774;29;19910;-78
2022/12/22 11:01:10;;;;;;;;;;;16.90;99.90;;;;;;4967554;29;19914;-79
2022/12/22 11:03:36;;;;;;;;;;;15.80;99.90;;;;;;4968742;28;20002;-79
2022/12/22 11:06:10;;;;;;;;;;;15.20;99.90;;;;;;4967210;29;19924;-78
2022/12/22 11:08:35;;;;;;;;;;;14.70;99.90;;;;;;4966520;29;19911;-78
2022/12/22 11:11:01;;;;;;;;;;;14.70;99.90;;;;;;4967741;29;19910;-79
2022/12/22 11:13:45;;;;;;;;;;;14.40;99.90;;;;;;4983467;28;20002;-78
2022/12/22 11:16:26;;;;;;;;;;;13.70;99.90;;;;;;4967339;29;19916;-78
2022/12/22 11:19:01;;;;;;;;;;;13.10;99.90;;;;;;4963941;28;20382;-78
2022/12/22 11:21:47;;;;;;;;;;;12.90;99.90;;;;;;4964677;28;19927;-77
2022/12/22 11:24:24;;;;;;;;;;;12.60;99.90;;;;;;4966619;29;19977;-79
2022/12/22 11:26:55;;;;;;;;;;;12.70;99.90;;;;;;4951075;29;19918;-79
2022/12/22 11:29:21;;;;;;;;;;;12.80;99.90;;;;;;4948531;29;19926;-79
2022/12/22 11:31:47;;;;;;;;;;;12.50;99.90;;;;;;4968282;28;19911;-79
2022/12/22 11:34:31;;;;;;;;;;;12.40;99.90;;;;;;4963779;29;19910;-78
2022/12/22 11:37:06;;;;;;;;;;;12.40;99.90;;;;;;4983025;28;19917;-76
2022/12/22 11:39:38;;;;;;;;;;;12.60;99.90;;;;;;4967137;29;19910;-78
2022/12/22 11:42:13;;;;;;;;;;;12.60;99.90;;;;;;4966301;29;19914;-77
2022/12/22 11:44:44;;;;;;;;;;;12.60;99.90;;;;;;4966447;28;19915;-79
2022/12/22 11:47:20;;;;;;;;;;;12.30;99.90;;;;;;4981888;28;19914;-79
2022/12/22 11:49:52;;;;;;;;;;;12.20;99.90;;;;;;4978052;28;19945;-79
2022/12/22 11:52:18;;;;;;;;;;;12.00;99.90;;;;;;4960270;29;19926;-78
2022/12/22 11:55:02;;;;;;;;;;;11.90;99.90;;;;;;4966581;29;19907;-79
2022/12/22 11:57:28;;;;;;;;;;;11.60;99.90;;;;;;4981710;28;19914;-76
2022/12/22 12:00:11;;;;;;;;;;;11.50;99.90;;;;;;4967156;28;20001;-79
2022/12/22 12:02:38;;;;;;;;;;;11.40;99.90;;;;;;4960886;29;19918;-79
2022/12/22 12:05:15;;;;;;;;;;;11.30;99.90;;;;;;4981044;28;19926;-79
2022/12/22 12:07:44;;;;;;;;;;;11.40;99.90;;;;;;4964984;28;19949;-79
2022/12/22 12:10:16;;;;;;;;;;;11.50;99.90;;;;;;4980499;28;19941;-79
2022/12/22 12:12:48;;;;;;;;;;;11.60;99.90;;;;;;4962401;29;19910;-79
2022/12/22 12:15:13;;;;;;;;;;;11.50;99.90;;;;;;4981539;28;19910;-79
2022/12/22 12:17:58;;;;;;;;;;;11.60;99.90;;;;;;4965566;29;19973;-79
2022/12/22 12:20:27;;;;;;;;;;;11.50;99.90;;;;;;4965682;29;19925;-78
2022/12/22 12:23:11;;;;;;;;;;;11.90;99.90;;;;;;4965941;28;20006;-79
2022/12/22 12:25:37;;;;;;;;;;;12.10;99.90;;;;;;4959109;29;19910;-79
2022/12/22 12:28:03;;;;;;;;;;;12.10;99.90;;;;;;4978702;28;20489;-79
2022/12/22 12:30:32;;;;;;;;;;;12.10;99.90;;;;;;4965394;29;20009;-79
2022/12/22 12:32:58;;;;;;;;;;;11.90;99.90;;;;;;4961419;29;19938;-78
2022/12/22 12:35:32;;;;;;;;;;;11.70;99.90;;;;;;4950162;29;19910;-79
2022/12/22 12:38:27;;;;;;;;;;;11.50;99.90;;;;;;4941074;29;19911;-79
2022/12/22 12:41:12;;;;;;;;;;;11.40;99.90;;;;;;4932601;28;20001;-79
2022/12/22 12:43:39;;;;;;;;;;;11.40;99.90;;;;;;4964417;29;19918;-79
2022/12/22 12:46:23;;;;;;;;;;;11.20;99.90;;;;;;4966226;29;19911;-79
2022/12/22 12:48:49;;;;;;;;;;;11.10;99.90;;;;;;4966415;29;19937;-79
2022/12/22 12:51:33;;;;;;;;;;;11.10;99.90;;;;;;4967354;29;19978;-79
2022/12/22 12:54:25;;;;;;;;;;;11.10;99.90;;;;;;4965267;29;19997;-78
2022/12/22 12:57:10;;;;;;;;;;;11.10;99.90;;;;;;4965672;29;19914;-79
2022/12/22 12:59:39;;;;;;;;;;;11.10;99.90;;;;;;4979430;28;19910;-78
2022/12/22 13:02:23;;;;;;;;;;;11.00;99.90;;;;;;4967044;28;19911;-79
2022/12/22 13:05:11;;;;;;;;;;;10.90;99.90;;;;;;4950996;29;19921;-79
2022/12/22 13:07:55;;;;;;;;;;;10.70;99.90;;;;;;4961810;29;19918;-78
2022/12/22 13:10:23;;;;;;;;;;;11.00;99.90;;;;;;4966298;29;20003;-79
2022/12/22 13:12:50;;;;;;;;;;;11.10;99.90;;;;;;4969273;29;19938;-79
2022/12/22 13:15:36;;;;;;;;;;;11.00;99.90;;;;;;4968288;29;19917;-79
2022/12/22 13:18:03;;;;;;;;;;;10.90;99.90;;;;;;4970726;29;19917;-79
2022/12/22 13:20:33;;;;;;;;;;;10.80;99.90;;;;;;4970221;28;19926;-79
2022/12/22 13:23:00;;;;;;;;;;;10.80;99.90;;;;;;4966324;29;19934;-79
2022/12/22 13:25:39;;;;;;;;;;;10.60;99.90;;;;;;4969224;29;20000;-79
2022/12/22 13:28:05;;;;;;;;;;;10.50;99.90;;;;;;4970667;28;19934;-79
2022/12/22 13:30:31;;;;;;;;;;;10.50;99.90;;;;;;4966142;29;19939;-79
2022/12/22 13:33:00;;;;;;;;;;;10.50;99.90;;;;;;4976191;28;19911;-79
2022/12/22 13:35:37;;;;;;;;;;;10.60;99.90;;;;;;4969830;28;19910;-79
2022/12/22 13:38:03;;;;;;;;;;;10.60;99.90;;;;;;4959019;29;19925;-79
2022/12/22 13:40:30;;;;;;;;;;;10.60;99.90;;;;;;4963774;29;19914;-79
2022/12/22 13:42:56;;;;;;;;;;;10.60;99.90;;;;;;4985448;28;19910;-79
2022/12/22 13:45:28;;;;;;;;;;;10.60;99.90;;;;;;4984546;28;19917;-79
2022/12/22 13:47:54;;;;;;;;;;;10.60;99.90;;;;;;4952726;28;19911;-79
2022/12/22 13:50:25;;;;;;;;;;;10.60;99.90;;;;;;4965937;29;19918;-79
2022/12/22 13:52:51;;;;;;;;;;;10.60;99.90;;;;;;4969774;29;19910;-79
2022/12/22 13:55:28;;;;;;;;;;;10.60;99.90;;;;;;4969126;29;19910;-79
2022/12/22 13:57:55;;;;;;;;;;;10.60;99.90;;;;;;4951422;29;20294;-79
2022/12/22 14:00:24;;;;;;;;;;;10.50;99.90;;;;;;4983344;28;19914;-79
2022/12/22 14:02:50;;;;;;;;;;;10.50;99.90;;;;;;4968591;29;19915;-79
2022/12/22 14:05:17;;;;;;;;;;;10.40;99.90;;;;;;4968086;29;19921;-79
2022/12/22 14:07:58;;;;;;;;;;;10.40;99.90;;;;;;4969768;28;19911;-79
2022/12/22 14:10:28;;;;;;;;;;;10.40;99.90;;;;;;4968244;29;19910;-79
2022/12/22 14:12:54;;;;;;;;;;;10.30;99.90;;;;;;4970098;28;19940;-76
2022/12/22 14:15:39;;;;;;;4.68;3.35;;;10.30;99.90;;;;;;5125444;27;20403;-78
2022/12/22 14:18:05;;;;;;;4.82;3.63;;;10.30;99.90;;;;;;5085368;28;20059;-78
2022/12/22 14:20:36;;;;;;;5.40;4.85;;;10.20;99.90;;;;;;5112413;28;20057;-77
2022/12/22 14:23:05;;;;;;;;;;;10.10;99.90;;;;;;5101440;28;20028;-77
2022/12/22 14:25:34;;;;;;;3.80;3.15;;;10.10;99.90;;;;;;5100438;28;19923;-78
2022/12/22 14:28:01;;;;;;;4.38;3.97;;;9.80;99.90;;;;;;5067985;28;20032;-76
2022/12/22 14:30:33;;;;;;;4.22;3.65;;;9.80;99.90;;;;;;5091525;28;20060;-78
2022/12/22 14:33:22;;;;;;;5.38;3.63;;;9.80;99.90;;;;;;5121895;28;20035;-79
2022/12/22 14:35:48;;;;;;;7.38;5.68;;;9.70;99.90;;;;;;5122944;28;20032;-78
2022/12/22 14:38:23;;;;;;;4.70;4.30;;;9.70;99.90;;;;;;5122844;28;20024;-79
2022/12/22 14:40:50;;;;;;;6.10;5.47;;;9.60;99.90;;;;;;5122224;28;20393;-79
2022/12/22 14:43:16;;;;;;;4.38;3.97;;;9.60;99.90;;;;;;5104909;28;20027;-78
2022/12/22 14:45:46;;;;;;;4.18;3.75;;;9.60;99.90;;;;;;5105093;28;20092;-79
2022/12/22 14:48:25;;;;;;;4.28;3.92;;;9.60;99.90;;;;;;5122593;28;20016;-78
2022/12/22 14:50:53;;;;;;;5.53;3.38;;;9.50;99.90;;;;;;5087326;28;20026;-79
2022/12/22 14:53:43;;;;;;;9.63;3.78;;;9.50;99.90;;;;;;5122961;28;20008;-79
2022/12/22 14:56:14;;;;;;;6.15;3.85;;;9.40;99.90;;;;;;5103909;28;20024;-79
2022/12/22 14:58:44;;;;;;;6.50;3.63;;;9.30;99.90;;;;;;5122709;28;20461;-78
2022/12/22 15:01:12;;;;;;;;;;;9.30;99.90;;;;;;5104897;28;20027;-79
2022/12/22 15:03:39;;;;;;;2.72;2.53;;;9.30;99.90;;;;;;5122939;28;19907;-76
2022/12/22 15:06:42;;;;;;;6.68;3.88;;;9.20;99.90;;;;;;5103982;28;20028;-79
2022/12/22 15:09:24;;;;;;;4.88;3.65;;;9.10;99.90;;;;;;5014627;28;20038;-79
2022/12/22 15:11:54;;;;;;;3.05;2.88;;;9.10;99.90;;;;;;5095349;28;20044;-79
2022/12/22 15:14:25;;;;;;;3.85;3.65;;;9.00;99.90;;;;;;5103694;28;20095;-79
2022/12/22 15:16:56;;;;;;;6.05;4.47;;;9.00;99.90;;;;;;5122098;28;20103;-79
2022/12/22 15:19:22;;;;;;;6.25;5.00;;;9.00;99.90;;;;;;5087113;28;20065;-79
2022/12/22 15:21:51;;;;;;;5.88;5.38;;;9.00;99.90;;;;;;5104133;28;20016;-79
2022/12/22 15:24:18;;;;;;;6.33;4.60;;;9.00;99.90;;;;;;5104019;28;20114;-79
2022/12/22 15:26:44;;;;;;;7.85;4.60;;;9.00;99.90;;;;;;5109184;28;20036;-76
2022/12/22 15:29:11;;;;;;;6.55;5.25;;;8.90;99.90;;;;;;5107824;28;20027;-79
2022/12/22 15:31:37;;;;;;;7.93;6.45;;;9.00;99.90;;;;;;5071712;28;20024;-79
2022/12/22 15:34:10;;;;;;;13.82;10.65;;;8.90;99.90;;;;;;5107942;28;20028;-79
2022/12/22 15:36:36;;;;;;;6.15;5.65;;;8.90;99.90;;;;;;5089750;28;20118;-78
2022/12/22 15:39:02;;;;;;;28.95;16.30;;;8.90;99.90;;;;;;5090645;28;20012;-79
2022/12/22 15:41:28;;;;;;;8.20;7.47;;;9.00;99.90;;;;;;5056503;28;20127;-79
2022/12/22 15:43:54;;;;;;;5.38;4.97;;;9.00;99.90;;;;;;5090212;28;20032;-79
2022/12/22 15:46:20;;;;;;;7.93;6.05;;;9.00;99.90;;;;;;5089567;28;20024;-76
2022/12/22 15:48:46;;;;;;;6.47;5.95;;;9.00;99.90;;;;;;5089465;28;20032;-76
2022/12/22 15:51:32;;;;;;;11.25;7.22;;;9.00;99.90;;;;;;5108499;28;20047;-79
2022/12/22 15:53:59;;;;;;;56.22;36.95;;;9.00;99.90;;;;;;5080136;28;20077;-78
2022/12/22 15:56:28;;;;;;;7.95;7.20;;;9.00;99.90;;;;;;5092530;28;20024;-78
2022/12/22 15:58:55;;;;;;;13.98;12.57;;;9.10;99.90;;;;;;5090391;28;20050;-79
2022/12/22 16:01:20;;;;;;;14.88;8.85;;;9.10;99.90;;;;;;5108476;28;20024;-78
2022/12/22 16:03:46;;;;;;;9.77;8.77;;;9.10;99.90;;;;;;5087519;28;20057;-79
2022/12/22 16:06:15;;;;;;;7.82;6.18;;;9.10;99.90;;;;;;5083305;28;20481;-79
2022/12/22 16:08:48;;;;;;;6.68;6.07;;;9.10;99.90;;;;;;5084568;28;20028;-78
2022/12/22 16:11:15;;;;;;;7.90;7.10;;;9.20;99.90;;;;;;5078272;28;20044;-78
2022/12/22 16:13:41;;;;;;;8.80;7.93;;;9.20;99.90;;;;;;5082093;28;20051;-79
2022/12/22 16:16:07;;;;;;;11.65;7.72;;;9.20;99.90;;;;;;5109788;28;20024;-78
2022/12/22 16:18:33;;;;;;;10.02;7.50;;;9.30;99.90;;;;;;5091169;28;20032;-78
2022/12/22 16:21:12;;;;;;;12.93;7.70;;;9.30;99.90;;;;;;5075159;28;20032;-78
2022/12/22 16:23:41;;;;;;;11.70;7.55;;;9.40;99.90;;;;;;5090061;28;20032;-79
2022/12/22 16:26:10;;;;;;;10.57;7.15;;;9.50;99.90;;;;;;5090121;28;20053;-79
2022/12/22 16:28:37;;;;;;;9.15;6.32;;;9.50;99.90;;;;;;5057490;28;20032;-79
2022/12/22 16:31:02;;;;;;;8.18;6.03;;;9.60;99.90;;;;;;5089341;28;20061;-78
2022/12/22 16:33:28;;;;;;;15.07;9.40;;;9.50;99.90;;;;;;5072694;28;20087;-78
2022/12/22 16:35:54;;;;;;;10.75;6.47;;;9.60;99.90;;;;;;5069610;28;20032;-78
2022/12/22 16:38:20;;;;;;;8.65;6.57;;;9.60;99.90;;;;;;5098710;28;20192;-78
2022/12/22 16:40:51;;;;;;;10.10;7.18;;;9.60;99.90;;;;;;5069244;28;20027;-78
2022/12/22 16:43:22;;;;;;;6.88;6.28;;;9.70;99.90;;;;;;5104213;28;20032;-76
2022/12/22 16:45:48;;;;;;;14.73;6.28;;;9.70;99.90;;;;;;5107269;28;20024;-76
2022/12/22 16:48:20;;;;;;;11.27;7.70;;;9.70;99.90;;;;;;5072394;28;20028;-76
2022/12/22 16:50:47;;;;;;;9.35;5.82;;;9.70;99.90;;;;;;5093357;28;20032;-76
2022/12/22 16:53:13;;;;;;;17.55;7.82;;;9.80;99.90;;;;;;5119121;28;20020;-76
2022/12/22 16:55:43;;;;;;;7.47;4.80;;;9.80;99.90;;;;;;5096217;28;20063;-76
2022/12/22 16:58:10;;;;;;;16.40;6.53;;;9.80;99.90;;;;;;5089263;28;20073;-76
2022/12/22 17:00:37;;;;;;;26.08;6.78;;;9.90;99.90;;;;;;5071970;28;20058;-78
2022/12/22 17:03:05;;;;;;;24.55;7.47;;;9.90;99.90;;;;;;5089137;28;20469;-77
2022/12/22 17:05:38;;;;;;;12.38;4.82;;;10.00;99.90;;;;;;5115405;28;20028;-76
2022/12/22 17:08:19;;;;;;;17.52;6.90;;;10.00;99.90;;;;;;5088978;28;20053;-76
2022/12/22 17:10:45;;;;;;;19.00;9.88;;;10.00;99.90;;;;;;5070215;28;20028;-76
2022/12/22 17:13:11;;;;;;;27.77;10.00;;;10.00;99.90;;;;;;5062065;28;20036;-76
2022/12/22 17:15:37;;;;;;;17.90;5.72;;;10.00;99.90;;;;;;5077433;28;20047;-78
2022/12/22 17:18:12;;;;;;;29.35;8.20;;;10.00;99.90;;;;;;5073170;28;20409;-76
2022/12/22 17:20:38;;;;;;;19.60;7.85;;;10.10;99.90;;;;;;5064998;28;20040;-76
2022/12/22 17:23:04;;;;;;;18.70;9.48;;;10.10;99.90;;;;;;5065298;28;20037;-76
2022/12/22 17:25:30;;;;;;;26.27;12.45;;;10.10;99.90;;;;;;5033650;28;20486;-76
2022/12/22 17:27:59;;;;;;;15.48;8.48;;;10.10;99.90;;;;;;5049629;28;20014;-76
2022/12/22 17:30:26;;;;;;;18.33;9.25;;;10.10;99.90;;;;;;5044868;28;20113;-76
2022/12/22 17:32:52;;;;;;;23.13;8.18;;;10.10;99.90;;;;;;5045929;28;20064;-76
2022/12/22 17:35:23;;;;;;;14.65;6.75;;;10.10;99.90;;;;;;5052880;28;20422;-77
2022/12/22 17:37:50;;;;;;;16.58;5.93;;;10.10;99.90;;;;;;5030891;28;20037;-76
2022/12/22 17:40:29;;;;;;;23.25;9.35;;;10.10;99.90;;;;;;5056090;28;20125;-76
2022/12/22 17:42:57;;;;;;;22.38;8.73;;;10.10;99.90;;;;;;5045027;28;20025;-77
2022/12/22 17:45:23;;;;;;;23.42;10.57;;;10.10;99.90;;;;;;5054461;28;20104;-77
2022/12/22 17:47:49;;;;;;;22.92;8.45;;;10.20;99.90;;;;;;5047558;28;20030;-77
2022/12/22 17:50:18;;;;;;;20.20;10.30;;;10.10;99.90;;;;;;5055222;28;20025;-76